• Join FlightAware (Why Join?)
  • Login
  • US Flag 
10:23PM EST


 

Airport Tracker/Info


-or-


 

Live Flight TrackerFlight Track Log ✈ AWE3921 ✈ 10-Apr-2013 ✈ KDCA - KCAE

Flight Track Log - Related Links

Times and Time Zones

All times are in EDT time to prevent confusion due to time zone crossing. See the AWE3921 flight status page for this flight to view local times or setup timezone preferences in your user account.

Time Position Orientation Groundspeed Altitude Reporting Facility
EDT Latitude Longitude Course Direction KTS MPH feet Rate Location/Type
02:14PM 38.6174 -77.2478 215° Southwest  Level Estimated
02:15PM 38.5391 -77.3175 215° Southwest  Level Estimated
02:16PM 38.4608 -77.3870 215° Southwest  Level Estimated
02:17PM 38.3824 -77.4565 215° Southwest  Level Estimated
02:18PM 38.3040 -77.5257 215° Southwest  Level Estimated
02:19PM 38.2256 -77.5948 215° Southwest  Level Estimated
02:20PM 38.1471 -77.6638 215° Southwest  Level Estimated
02:21PM 38.0686 -77.7326 215° Southwest  Level Estimated
02:22PM 37.9901 -77.8013 215° Southwest  Level Estimated
02:23PM 37.9115 -77.8698 215° Southwest  Level Estimated
02:24PM 37.8329 -77.9382 214° Southwest  Level Estimated
02:25PM 37.7542 -78.0064 214° Southwest  Level Estimated
02:26PM 37.6755 -78.0745 214° Southwest  Level Estimated
02:27PM 37.5967 -78.1424 214° Southwest  Level Estimated
02:28PM 37.5179 -78.2102 214° Southwest  Level Estimated
02:29PM 37.4391 -78.2779 214° Southwest  Level Estimated
02:30PM 37.3602 -78.3454 214° Southwest  Level Estimated
02:31PM 37.2813 -78.4128 214° Southwest  Level Estimated
02:32PM 37.2024 -78.4800 214° Southwest  Level Estimated
02:33PM 37.1234 -78.5471 214° Southwest  Level Estimated
02:34PM 37.0444 -78.6140 214° Southwest  Level Estimated
02:35PM 36.9654 -78.6808 214° Southwest  Level Estimated
02:36PM 36.8863 -78.7475 214° Southwest  Level Estimated
02:37PM 36.8071 -78.8140 214° Southwest  Level Estimated
02:38PM 36.7280 -78.8804 214° Southwest  Level Estimated
02:39PM 36.6488 -78.9467 214° Southwest  Level Estimated
02:40PM 36.5695 -79.0128 214° Southwest  Level Estimated
02:41PM 36.4902 -79.0788 214° Southwest  Level Estimated
02:42PM 36.4109 -79.1447 214° Southwest  Level Estimated
02:43PM 36.3316 -79.2104 214° Southwest  Level Estimated
02:44PM 36.2522 -79.2760 214° Southwest  Level Estimated
02:45PM 36.1728 -79.3414 214° Southwest  Level Estimated
02:46PM 36.0933 -79.4067 214° Southwest  Level Estimated
02:47PM 36.0138 -79.4719 214° Southwest  Level Estimated
02:48PM 35.9343 -79.5370 214° Southwest  Level Estimated
02:49PM 35.8547 -79.6019 213° Southwest  Level Estimated
02:50PM 35.7751 -79.6667 213° Southwest  Level Estimated
02:51PM 35.6955 -79.7314 213° Southwest  Level Estimated
02:52PM 35.6158 -79.7959 213° Southwest  Level Estimated
02:53PM 35.5361 -79.8603 213° Southwest  Level Estimated
02:54PM 35.4564 -79.9246 213° Southwest  Level Estimated
02:55PM 35.3766 -79.9887 213° Southwest  Level Estimated
02:56PM 35.2968 -80.0527 213° Southwest  Level Estimated
02:57PM 35.2170 -80.1167 213° Southwest  Level Estimated
02:58PM 35.1371 -80.1804 213° Southwest  Level Estimated
02:59PM 35.0572 -80.2441 213° Southwest  Level Estimated
03:00PM 34.9773 -80.3076 213° Southwest  Level Estimated
03:01PM 34.8973 -80.3710 213° Southwest  Level Estimated
03:02PM 34.8173 -80.4343 213° Southwest  Level Estimated
03:03PM 34.7373 -80.4974 213° Southwest  Level Estimated
03:04PM 34.6572 -80.5604 213° Southwest  Level Estimated
03:05PM 34.5771 -80.6234 213° Southwest  Level Estimated
03:06PM 34.4970 -80.6861 213° Southwest  Level Estimated
03:07PM 34.4168 -80.7488 213° Southwest  Level Estimated
03:08PM 34.3366 -80.8114 213° Southwest  Level Estimated
03:09PM 34.2564 -80.8738 213° Southwest  Level Estimated
03:10PM 34.1762 -80.9361 213° Southwest  Level Estimated
03:11PM 34.0959 -80.9983 213° Southwest  Level Estimated
03:12PM 34.0155 -81.0604 213° Southwest  Level Estimated
03:13PM 33.9388 -81.1195 213° Southwest  Level Estimated
03:14PM 33.9388 -81.1195 29° Northeast  Level Estimated
03:15PM 33.9388 -81.1195 29° Northeast  Level Estimated
03:16PM 33.9388 -81.1195 29° Northeast  Level Estimated
03:17PM 33.9388 -81.1195 29° Northeast  Level Estimated
03:18PM 33.9388 -81.1195 29° Northeast  Level Estimated